sensor_id;sensor_type;location;lat;lon;timestamp;P1;durP1;ratioP1;P2;durP2;ratioP2
8060;SDS011;4073;42.626;25.386;2023-06-22T00:02:15;15.27;;;13.67;;
8060;SDS011;4073;42.626;25.386;2023-06-22T00:04:41;14.93;;;13.53;;
8060;SDS011;4073;42.626;25.386;2023-06-22T00:07:06;15.50;;;14.00;;
8060;SDS011;4073;42.626;25.386;2023-06-22T00:09:32;15.33;;;13.70;;
8060;SDS011;4073;42.626;25.386;2023-06-22T00:11:58;13.60;;;12.30;;
8060;SDS011;4073;42.626;25.386;2023-06-22T00:14:24;13.80;;;12.57;;
8060;SDS011;4073;42.626;25.386;2023-06-22T00:16:49;13.77;;;12.27;;
8060;SDS011;4073;42.626;25.386;2023-06-22T00:19:19;13.33;;;12.17;;
8060;SDS011;4073;42.626;25.386;2023-06-22T00:21:46;14.30;;;13.00;;
8060;SDS011;4073;42.626;25.386;2023-06-22T00:24:13;14.83;;;13.43;;
8060;SDS011;4073;42.626;25.386;2023-06-22T00:26:38;15.53;;;14.03;;
8060;SDS011;4073;42.626;25.386;2023-06-22T00:29:04;15.27;;;13.70;;
8060;SDS011;4073;42.626;25.386;2023-06-22T00:31:29;14.53;;;13.23;;
8060;SDS011;4073;42.626;25.386;2023-06-22T00:33:55;14.37;;;12.93;;
8060;SDS011;4073;42.626;25.386;2023-06-22T00:36:20;13.03;;;11.73;;
8060;SDS011;4073;42.626;25.386;2023-06-22T00:38:46;14.70;;;13.23;;
8060;SDS011;4073;42.626;25.386;2023-06-22T00:41:11;13.43;;;12.03;;
8060;SDS011;4073;42.626;25.386;2023-06-22T00:43:36;15.17;;;12.77;;
8060;SDS011;4073;42.626;25.386;2023-06-22T00:46:02;15.03;;;13.43;;
8060;SDS011;4073;42.626;25.386;2023-06-22T00:48:28;14.47;;;13.03;;
8060;SDS011;4073;42.626;25.386;2023-06-22T00:50:53;14.87;;;12.43;;
8060;SDS011;4073;42.626;25.386;2023-06-22T00:53:21;14.50;;;13.10;;
8060;SDS011;4073;42.626;25.386;2023-06-22T00:55:46;13.80;;;12.57;;
8060;SDS011;4073;42.626;25.386;2023-06-22T00:58:16;14.47;;;13.07;;
8060;SDS011;4073;42.626;25.386;2023-06-22T01:00:43;14.17;;;12.67;;
8060;SDS011;4073;42.626;25.386;2023-06-22T01:03:08;15.07;;;13.07;;
8060;SDS011;4073;42.626;25.386;2023-06-22T01:05:34;14.43;;;13.03;;
8060;SDS011;4073;42.626;25.386;2023-06-22T01:10:50;14.13;;;12.73;;
8060;SDS011;4073;42.626;25.386;2023-06-22T01:15:58;15.23;;;13.47;;
8060;SDS011;4073;42.626;25.386;2023-06-22T01:18:28;15.40;;;13.80;;
8060;SDS011;4073;42.626;25.386;2023-06-22T01:20:56;13.77;;;12.43;;
8060;SDS011;4073;42.626;25.386;2023-06-22T01:28:50;15.13;;;13.73;;
8060;SDS011;4073;42.626;25.386;2023-06-22T01:31:25;15.27;;;13.80;;
8060;SDS011;4073;42.626;25.386;2023-06-22T01:33:59;14.57;;;13.20;;
8060;SDS011;4073;42.626;25.386;2023-06-22T01:36:27;15.60;;;14.10;;
8060;SDS011;4073;42.626;25.386;2023-06-22T01:38:55;17.40;;;15.57;;
8060;SDS011;4073;42.626;25.386;2023-06-22T01:41:23;15.97;;;14.37;;
8060;SDS011;4073;42.626;25.386;2023-06-22T01:43:50;16.23;;;14.63;;
8060;SDS011;4073;42.626;25.386;2023-06-22T01:46:17;14.70;;;13.30;;
8060;SDS011;4073;42.626;25.386;2023-06-22T01:48:44;15.43;;;13.87;;
8060;SDS011;4073;42.626;25.386;2023-06-22T01:51:10;15.70;;;13.10;;
8060;SDS011;4073;42.626;25.386;2023-06-22T01:53:36;14.33;;;13.03;;
8060;SDS011;4073;42.626;25.386;2023-06-22T01:56:02;14.73;;;13.23;;
8060;SDS011;4073;42.626;25.386;2023-06-22T01:58:28;13.30;;;12.13;;
8060;SDS011;4073;42.626;25.386;2023-06-22T02:00:59;13.77;;;12.27;;
8060;SDS011;4073;42.626;25.386;2023-06-22T02:06:35;15.80;;;14.30;;
8060;SDS011;4073;42.626;25.386;2023-06-22T02:09:05;15.57;;;14.00;;
8060;SDS011;4073;42.626;25.386;2023-06-22T02:11:34;15.67;;;14.17;;
8060;SDS011;4073;42.626;25.386;2023-06-22T02:14:02;15.50;;;13.90;;
8060;SDS011;4073;42.626;25.386;2023-06-22T02:16:27;15.03;;;13.70;;
8060;SDS011;4073;42.626;25.386;2023-06-22T02:18:55;16.63;;;14.97;;
8060;SDS011;4073;42.626;25.386;2023-06-22T02:21:22;15.57;;;13.90;;
8060;SDS011;4073;42.626;25.386;2023-06-22T02:23:47;15.70;;;14.13;;
8060;SDS011;4073;42.626;25.386;2023-06-22T02:26:13;15.70;;;13.93;;
8060;SDS011;4073;42.626;25.386;2023-06-22T02:28:38;16.30;;;14.70;;
8060;SDS011;4073;42.626;25.386;2023-06-22T02:31:04;15.80;;;14.30;;
8060;SDS011;4073;42.626;25.386;2023-06-22T02:33:29;15.43;;;13.83;;
8060;SDS011;4073;42.626;25.386;2023-06-22T02:35:55;16.17;;;14.47;;
8060;SDS011;4073;42.626;25.386;2023-06-22T02:38:21;16.37;;;14.63;;
8060;SDS011;4073;42.626;25.386;2023-06-22T02:40:48;15.50;;;14.00;;
8060;SDS011;4073;42.626;25.386;2023-06-22T02:43:13;15.57;;;13.93;;
8060;SDS011;4073;42.626;25.386;2023-06-22T02:45:39;15.63;;;14.03;;
8060;SDS011;4073;42.626;25.386;2023-06-22T02:48:04;14.67;;;13.23;;
8060;SDS011;4073;42.626;25.386;2023-06-22T02:50:30;16.07;;;13.77;;
8060;SDS011;4073;42.626;25.386;2023-06-22T02:52:55;14.13;;;12.73;;
8060;SDS011;4073;42.626;25.386;2023-06-22T02:55:21;14.43;;;12.90;;
8060;SDS011;4073;42.626;25.386;2023-06-22T02:57:47;15.20;;;13.27;;
8060;SDS011;4073;42.626;25.386;2023-06-22T03:00:13;14.77;;;13.30;;
8060;SDS011;4073;42.626;25.386;2023-06-22T03:02:46;15.00;;;12.70;;
8060;SDS011;4073;42.626;25.386;2023-06-22T03:05:12;14.37;;;13.00;;
8060;SDS011;4073;42.626;25.386;2023-06-22T03:07:42;13.87;;;12.57;;
8060;SDS011;4073;42.626;25.386;2023-06-22T03:10:12;13.90;;;12.40;;
8060;SDS011;4073;42.626;25.386;2023-06-22T03:12:39;13.10;;;11.87;;
8060;SDS011;4073;42.626;25.386;2023-06-22T03:15:05;14.53;;;13.13;;
8060;SDS011;4073;42.626;25.386;2023-06-22T03:17:33;16.03;;;13.03;;
8060;SDS011;4073;42.626;25.386;2023-06-22T03:19:58;13.30;;;12.00;;
8060;SDS011;4073;42.626;25.386;2023-06-22T03:22:24;14.00;;;12.70;;
8060;SDS011;4073;42.626;25.386;2023-06-22T03:24:49;15.97;;;12.80;;
8060;SDS011;4073;42.626;25.386;2023-06-22T03:27:15;14.87;;;13.40;;
8060;SDS011;4073;42.626;25.386;2023-06-22T03:29:40;19.07;;;15.90;;
8060;SDS011;4073;42.626;25.386;2023-06-22T03:32:06;17.73;;;15.93;;
8060;SDS011;4073;42.626;25.386;2023-06-22T03:34:32;18.47;;;16.63;;
8060;SDS011;4073;42.626;25.386;2023-06-22T03:37:03;20.23;;;16.90;;
8060;SDS011;4073;42.626;25.386;2023-06-22T03:39:29;19.77;;;17.53;;
8060;SDS011;4073;42.626;25.386;2023-06-22T03:41:55;19.37;;;17.57;;
8060;SDS011;4073;42.626;25.386;2023-06-22T03:44:20;19.77;;;16.70;;
8060;SDS011;4073;42.626;25.386;2023-06-22T03:46:46;20.47;;;16.50;;
8060;SDS011;4073;42.626;25.386;2023-06-22T03:49:11;17.23;;;15.63;;
8060;SDS011;4073;42.626;25.386;2023-06-22T03:51:37;17.47;;;15.70;;
8060;SDS011;4073;42.626;25.386;2023-06-22T03:54:02;18.47;;;15.30;;
8060;SDS011;4073;42.626;25.386;2023-06-22T03:56:27;17.93;;;15.03;;
8060;SDS011;4073;42.626;25.386;2023-06-22T03:58:53;16.20;;;14.63;;
8060;SDS011;4073;42.626;25.386;2023-06-22T04:01:18;17.47;;;15.80;;
8060;SDS011;4073;42.626;25.386;2023-06-22T04:03:44;16.03;;;14.43;;
8060;SDS011;4073;42.626;25.386;2023-06-22T04:06:09;16.57;;;14.83;;
8060;SDS011;4073;42.626;25.386;2023-06-22T04:08:35;17.73;;;15.93;;
8060;SDS011;4073;42.626;25.386;2023-06-22T04:11:00;18.70;;;15.87;;
8060;SDS011;4073;42.626;25.386;2023-06-22T04:13:26;18.00;;;16.10;;
8060;SDS011;4073;42.626;25.386;2023-06-22T04:15:51;17.17;;;15.47;;
8060;SDS011;4073;42.626;25.386;2023-06-22T04:18:17;17.50;;;15.17;;
8060;SDS011;4073;42.626;25.386;2023-06-22T04:20:42;17.03;;;15.33;;
8060;SDS011;4073;42.626;25.386;2023-06-22T04:23:10;17.97;;;15.43;;
8060;SDS011;4073;42.626;25.386;2023-06-22T04:25:35;17.00;;;15.30;;
8060;SDS011;4073;42.626;25.386;2023-06-22T04:28:01;16.37;;;14.97;;
8060;SDS011;4073;42.626;25.386;2023-06-22T04:30:28;15.53;;;13.50;;
8060;SDS011;4073;42.626;25.386;2023-06-22T04:32:56;16.93;;;15.23;;
8060;SDS011;4073;42.626;25.386;2023-06-22T04:35:23;15.37;;;13.77;;
8060;SDS011;4073;42.626;25.386;2023-06-22T04:37:49;14.50;;;13.10;;
8060;SDS011;4073;42.626;25.386;2023-06-22T04:40:15;15.70;;;14.20;;
8060;SDS011;4073;42.626;25.386;2023-06-22T04:42:41;16.13;;;12.27;;
8060;SDS011;4073;42.626;25.386;2023-06-22T04:45:17;21.50;;;14.80;;
8060;SDS011;4073;42.626;25.386;2023-06-22T04:47:42;16.60;;;14.90;;
8060;SDS011;4073;42.626;25.386;2023-06-22T04:50:13;16.07;;;13.43;;
8060;SDS011;4073;42.626;25.386;2023-06-22T04:52:38;15.77;;;14.03;;
8060;SDS011;4073;42.626;25.386;2023-06-22T04:55:04;14.97;;;13.53;;
8060;SDS011;4073;42.626;25.386;2023-06-22T04:57:30;14.50;;;13.20;;
8060;SDS011;4073;42.626;25.386;2023-06-22T04:59:58;15.33;;;13.70;;
8060;SDS011;4073;42.626;25.386;2023-06-22T05:02:36;14.73;;;12.80;;
8060;SDS011;4073;42.626;25.386;2023-06-22T05:05:02;13.07;;;11.80;;
8060;SDS011;4073;42.626;25.386;2023-06-22T05:07:32;14.07;;;12.57;;
8060;SDS011;4073;42.626;25.386;2023-06-22T05:10:01;12.93;;;11.63;;
8060;SDS011;4073;42.626;25.386;2023-06-22T05:12:28;14.00;;;12.50;;
8060;SDS011;4073;42.626;25.386;2023-06-22T05:14:54;12.87;;;11.63;;
8060;SDS011;4073;42.626;25.386;2023-06-22T05:17:19;13.47;;;12.17;;
8060;SDS011;4073;42.626;25.386;2023-06-22T05:19:45;13.67;;;12.17;;
8060;SDS011;4073;42.626;25.386;2023-06-22T05:22:15;13.27;;;11.97;;
8060;SDS011;4073;42.626;25.386;2023-06-22T05:24:41;13.80;;;12.37;;
8060;SDS011;4073;42.626;25.386;2023-06-22T05:27:07;13.37;;;11.73;;
8060;SDS011;4073;42.626;25.386;2023-06-22T05:29:33;15.67;;;12.83;;
8060;SDS011;4073;42.626;25.386;2023-06-22T05:31:59;14.23;;;12.83;;
8060;SDS011;4073;42.626;25.386;2023-06-22T05:34:24;13.23;;;11.87;;
8060;SDS011;4073;42.626;25.386;2023-06-22T05:36:50;14.00;;;12.60;;
8060;SDS011;4073;42.626;25.386;2023-06-22T05:39:15;12.87;;;11.57;;
8060;SDS011;4073;42.626;25.386;2023-06-22T05:41:41;13.10;;;11.90;;
8060;SDS011;4073;42.626;25.386;2023-06-22T05:44:08;14.17;;;11.90;;
8060;SDS011;4073;42.626;25.386;2023-06-22T05:46:33;17.77;;;12.03;;
8060;SDS011;4073;42.626;25.386;2023-06-22T05:48:59;12.87;;;11.63;;
8060;SDS011;4073;42.626;25.386;2023-06-22T05:51:24;13.43;;;12.07;;
8060;SDS011;4073;42.626;25.386;2023-06-22T05:53:50;13.20;;;12.00;;
8060;SDS011;4073;42.626;25.386;2023-06-22T05:56:16;13.40;;;12.00;;
8060;SDS011;4073;42.626;25.386;2023-06-22T05:58:41;13.73;;;12.30;;
8060;SDS011;4073;42.626;25.386;2023-06-22T06:01:07;13.80;;;12.27;;
8060;SDS011;4073;42.626;25.386;2023-06-22T06:03:32;12.87;;;11.67;;
8060;SDS011;4073;42.626;25.386;2023-06-22T06:05:58;12.57;;;11.47;;
8060;SDS011;4073;42.626;25.386;2023-06-22T06:08:23;13.40;;;11.77;;
8060;SDS011;4073;42.626;25.386;2023-06-22T06:10:50;12.57;;;11.27;;
8060;SDS011;4073;42.626;25.386;2023-06-22T06:13:18;12.07;;;11.00;;
8060;SDS011;4073;42.626;25.386;2023-06-22T06:15:44;15.30;;;11.67;;
8060;SDS011;4073;42.626;25.386;2023-06-22T06:18:09;11.73;;;10.70;;
8060;SDS011;4073;42.626;25.386;2023-06-22T06:20:34;11.97;;;10.87;;
8060;SDS011;4073;42.626;25.386;2023-06-22T06:23:00;11.00;;;10.00;;
8060;SDS011;4073;42.626;25.386;2023-06-22T06:25:26;10.97;;;9.87;;
8060;SDS011;4073;42.626;25.386;2023-06-22T06:27:52;11.03;;;10.07;;
8060;SDS011;4073;42.626;25.386;2023-06-22T06:30:19;11.70;;;10.60;;
8060;SDS011;4073;42.626;25.386;2023-06-22T06:32:45;12.20;;;11.03;;
8060;SDS011;4073;42.626;25.386;2023-06-22T06:35:11;12.67;;;10.70;;
8060;SDS011;4073;42.626;25.386;2023-06-22T06:37:39;11.77;;;10.50;;
8060;SDS011;4073;42.626;25.386;2023-06-22T06:40:06;10.87;;;9.87;;
8060;SDS011;4073;42.626;25.386;2023-06-22T06:42:42;10.83;;;9.73;;
8060;SDS011;4073;42.626;25.386;2023-06-22T06:45:22;11.97;;;10.77;;
8060;SDS011;4073;42.626;25.386;2023-06-22T06:47:49;12.90;;;11.07;;
8060;SDS011;4073;42.626;25.386;2023-06-22T06:50:16;11.90;;;10.47;;
8060;SDS011;4073;42.626;25.386;2023-06-22T06:52:42;11.30;;;10.37;;
8060;SDS011;4073;42.626;25.386;2023-06-22T06:55:08;11.40;;;10.40;;
8060;SDS011;4073;42.626;25.386;2023-06-22T06:57:38;10.83;;;9.90;;
8060;SDS011;4073;42.626;25.386;2023-06-22T07:00:08;10.80;;;9.83;;
8060;SDS011;4073;42.626;25.386;2023-06-22T07:02:40;10.20;;;9.27;;
8060;SDS011;4073;42.626;25.386;2023-06-22T07:05:09;11.40;;;10.30;;
8060;SDS011;4073;42.626;25.386;2023-06-22T07:07:36;12.63;;;11.40;;
8060;SDS011;4073;42.626;25.386;2023-06-22T07:10:02;12.80;;;11.50;;
8060;SDS011;4073;42.626;25.386;2023-06-22T07:12:28;13.30;;;11.90;;
8060;SDS011;4073;42.626;25.386;2023-06-22T07:14:54;11.73;;;10.70;;
8060;SDS011;4073;42.626;25.386;2023-06-22T07:17:25;10.67;;;9.63;;
8060;SDS011;4073;42.626;25.386;2023-06-22T07:19:51;10.67;;;9.77;;
8060;SDS011;4073;42.626;25.386;2023-06-22T07:22:16;9.67;;;8.93;;
8060;SDS011;4073;42.626;25.386;2023-06-22T07:24:41;10.63;;;9.53;;
8060;SDS011;4073;42.626;25.386;2023-06-22T07:27:07;10.77;;;9.60;;
8060;SDS011;4073;42.626;25.386;2023-06-22T07:29:32;11.43;;;10.23;;
8060;SDS011;4073;42.626;25.386;2023-06-22T07:31:58;10.73;;;9.67;;
8060;SDS011;4073;42.626;25.386;2023-06-22T07:34:25;10.77;;;9.67;;
8060;SDS011;4073;42.626;25.386;2023-06-22T07:36:51;10.53;;;9.63;;
8060;SDS011;4073;42.626;25.386;2023-06-22T07:39:16;10.57;;;9.53;;
8060;SDS011;4073;42.626;25.386;2023-06-22T07:41:42;11.37;;;10.03;;
8060;SDS011;4073;42.626;25.386;2023-06-22T07:44:07;10.27;;;9.37;;
8060;SDS011;4073;42.626;25.386;2023-06-22T07:46:33;10.57;;;9.47;;
8060;SDS011;4073;42.626;25.386;2023-06-22T07:48:58;11.63;;;10.37;;
8060;SDS011;4073;42.626;25.386;2023-06-22T07:51:24;11.43;;;9.20;;
8060;SDS011;4073;42.626;25.386;2023-06-22T07:53:50;12.83;;;9.60;;
8060;SDS011;4073;42.626;25.386;2023-06-22T07:56:16;9.90;;;9.03;;
8060;SDS011;4073;42.626;25.386;2023-06-22T07:58:45;10.10;;;9.10;;
8060;SDS011;4073;42.626;25.386;2023-06-22T08:01:11;9.80;;;8.93;;
8060;SDS011;4073;42.626;25.386;2023-06-22T08:03:37;9.80;;;8.90;;
8060;SDS011;4073;42.626;25.386;2023-06-22T08:06:04;9.57;;;8.77;;
8060;SDS011;4073;42.626;25.386;2023-06-22T08:08:30;9.80;;;8.87;;
8060;SDS011;4073;42.626;25.386;2023-06-22T08:10:56;13.03;;;9.23;;
8060;SDS011;4073;42.626;25.386;2023-06-22T08:13:22;9.43;;;8.53;;
8060;SDS011;4073;42.626;25.386;2023-06-22T08:15:47;9.73;;;8.87;;
8060;SDS011;4073;42.626;25.386;2023-06-22T08:18:13;9.53;;;8.67;;
8060;SDS011;4073;42.626;25.386;2023-06-22T08:20:38;10.53;;;8.20;;
8060;SDS011;4073;42.626;25.386;2023-06-22T08:23:03;9.90;;;9.07;;
8060;SDS011;4073;42.626;25.386;2023-06-22T08:25:34;8.30;;;7.60;;
8060;SDS011;4073;42.626;25.386;2023-06-22T08:28:00;9.30;;;8.40;;
8060;SDS011;4073;42.626;25.386;2023-06-22T08:30:26;8.97;;;8.07;;
8060;SDS011;4073;42.626;25.386;2023-06-22T08:32:52;9.33;;;8.40;;
8060;SDS011;4073;42.626;25.386;2023-06-22T08:35:18;9.07;;;8.27;;
8060;SDS011;4073;42.626;25.386;2023-06-22T08:37:44;9.63;;;7.93;;
8060;SDS011;4073;42.626;25.386;2023-06-22T08:40:10;8.63;;;7.73;;
8060;SDS011;4073;42.626;25.386;2023-06-22T08:42:36;8.40;;;7.70;;
8060;SDS011;4073;42.626;25.386;2023-06-22T08:45:02;8.33;;;7.57;;
8060;SDS011;4073;42.626;25.386;2023-06-22T08:47:28;9.80;;;8.27;;
8060;SDS011;4073;42.626;25.386;2023-06-22T08:49:54;8.60;;;7.90;;
8060;SDS011;4073;42.626;25.386;2023-06-22T08:52:20;11.83;;;10.23;;
8060;SDS011;4073;42.626;25.386;2023-06-22T08:54:46;10.97;;;10.03;;
8060;SDS011;4073;42.626;25.386;2023-06-22T08:57:12;10.77;;;9.67;;
8060;SDS011;4073;42.626;25.386;2023-06-22T08:59:37;10.67;;;9.67;;
8060;SDS011;4073;42.626;25.386;2023-06-22T09:02:02;10.20;;;9.17;;
8060;SDS011;4073;42.626;25.386;2023-06-22T09:04:28;10.20;;;9.30;;
8060;SDS011;4073;42.626;25.386;2023-06-22T09:06:53;9.57;;;8.60;;
8060;SDS011;4073;42.626;25.386;2023-06-22T09:09:20;9.80;;;8.93;;
8060;SDS011;4073;42.626;25.386;2023-06-22T09:11:46;9.67;;;8.77;;
8060;SDS011;4073;42.626;25.386;2023-06-22T09:14:12;11.60;;;9.70;;
8060;SDS011;4073;42.626;25.386;2023-06-22T09:16:37;10.73;;;9.67;;
8060;SDS011;4073;42.626;25.386;2023-06-22T09:19:03;10.70;;;9.63;;
8060;SDS011;4073;42.626;25.386;2023-06-22T09:21:28;10.60;;;9.60;;
8060;SDS011;4073;42.626;25.386;2023-06-22T09:23:54;10.33;;;9.33;;
8060;SDS011;4073;42.626;25.386;2023-06-22T09:26:20;9.27;;;8.57;;
8060;SDS011;4073;42.626;25.386;2023-06-22T09:28:46;9.10;;;8.20;;
8060;SDS011;4073;42.626;25.386;2023-06-22T09:31:12;9.30;;;8.33;;
8060;SDS011;4073;42.626;25.386;2023-06-22T09:33:37;9.30;;;8.40;;
8060;SDS011;4073;42.626;25.386;2023-06-22T09:36:05;9.47;;;8.57;;
8060;SDS011;4073;42.626;25.386;2023-06-22T09:38:34;8.97;;;8.07;;
8060;SDS011;4073;42.626;25.386;2023-06-22T09:41:03;9.43;;;8.63;;
8060;SDS011;4073;42.626;25.386;2023-06-22T09:43:31;9.57;;;8.77;;
8060;SDS011;4073;42.626;25.386;2023-06-22T09:45:57;9.00;;;8.30;;
8060;SDS011;4073;42.626;25.386;2023-06-22T09:48:23;10.03;;;8.70;;
8060;SDS011;4073;42.626;25.386;2023-06-22T09:50:48;12.17;;;8.93;;
8060;SDS011;4073;42.626;25.386;2023-06-22T09:53:14;11.90;;;9.00;;
8060;SDS011;4073;42.626;25.386;2023-06-22T09:55:39;10.53;;;8.10;;
8060;SDS011;4073;42.626;25.386;2023-06-22T09:58:05;9.60;;;8.10;;
8060;SDS011;4073;42.626;25.386;2023-06-22T10:00:30;10.03;;;8.13;;
8060;SDS011;4073;42.626;25.386;2023-06-22T10:02:56;8.63;;;7.83;;
8060;SDS011;4073;42.626;25.386;2023-06-22T10:05:22;8.67;;;7.87;;
8060;SDS011;4073;42.626;25.386;2023-06-22T10:07:47;8.93;;;7.93;;
8060;SDS011;4073;42.626;25.386;2023-06-22T10:10:13;8.70;;;7.80;;
8060;SDS011;4073;42.626;25.386;2023-06-22T10:12:45;8.43;;;7.73;;
8060;SDS011;4073;42.626;25.386;2023-06-22T10:15:11;8.40;;;7.70;;
8060;SDS011;4073;42.626;25.386;2023-06-22T10:17:37;8.27;;;7.40;;
8060;SDS011;4073;42.626;25.386;2023-06-22T10:20:03;7.63;;;7.03;;
8060;SDS011;4073;42.626;25.386;2023-06-22T10:22:36;8.77;;;7.97;;
8060;SDS011;4073;42.626;25.386;2023-06-22T10:25:03;7.93;;;7.33;;
8060;SDS011;4073;42.626;25.386;2023-06-22T10:27:28;7.13;;;6.53;;
8060;SDS011;4073;42.626;25.386;2023-06-22T10:29:54;7.43;;;6.83;;
8060;SDS011;4073;42.626;25.386;2023-06-22T10:32:19;7.27;;;6.63;;
8060;SDS011;4073;42.626;25.386;2023-06-22T10:34:45;7.50;;;6.90;;
8060;SDS011;4073;42.626;25.386;2023-06-22T10:37:10;9.07;;;8.20;;
8060;SDS011;4073;42.626;25.386;2023-06-22T10:39:36;8.53;;;7.70;;
8060;SDS011;4073;42.626;25.386;2023-06-22T10:42:01;7.70;;;6.97;;
8060;SDS011;4073;42.626;25.386;2023-06-22T10:44:27;7.73;;;7.03;;
8060;SDS011;4073;42.626;25.386;2023-06-22T10:46:52;8.07;;;7.27;;
8060;SDS011;4073;42.626;25.386;2023-06-22T10:49:18;7.27;;;6.57;;
8060;SDS011;4073;42.626;25.386;2023-06-22T10:51:43;7.97;;;7.20;;
8060;SDS011;4073;42.626;25.386;2023-06-22T10:54:08;8.10;;;7.20;;
8060;SDS011;4073;42.626;25.386;2023-06-22T10:56:34;7.37;;;6.83;;
8060;SDS011;4073;42.626;25.386;2023-06-22T10:58:59;7.70;;;7.00;;
8060;SDS011;4073;42.626;25.386;2023-06-22T11:01:25;8.07;;;7.13;;
8060;SDS011;4073;42.626;25.386;2023-06-22T11:03:50;8.57;;;7.83;;
8060;SDS011;4073;42.626;25.386;2023-06-22T11:06:16;11.00;;;7.30;;
8060;SDS011;4073;42.626;25.386;2023-06-22T11:08:43;8.97;;;7.27;;
8060;SDS011;4073;42.626;25.386;2023-06-22T11:11:10;8.43;;;7.73;;
8060;SDS011;4073;42.626;25.386;2023-06-22T11:13:35;8.00;;;7.20;;
8060;SDS011;4073;42.626;25.386;2023-06-22T11:16:01;6.90;;;6.30;;
8060;SDS011;4073;42.626;25.386;2023-06-22T11:18:26;7.47;;;6.77;;
8060;SDS011;4073;42.626;25.386;2023-06-22T11:20:52;8.23;;;7.60;;
8060;SDS011;4073;42.626;25.386;2023-06-22T11:23:18;7.77;;;7.07;;
8060;SDS011;4073;42.626;25.386;2023-06-22T11:25:44;8.03;;;7.30;;
8060;SDS011;4073;42.626;25.386;2023-06-22T11:28:11;8.30;;;7.43;;
8060;SDS011;4073;42.626;25.386;2023-06-22T11:30:36;8.40;;;7.60;;
8060;SDS011;4073;42.626;25.386;2023-06-22T11:33:02;8.23;;;7.53;;
8060;SDS011;4073;42.626;25.386;2023-06-22T11:35:27;10.00;;;7.80;;
8060;SDS011;4073;42.626;25.386;2023-06-22T11:37:53;9.37;;;8.30;;
8060;SDS011;4073;42.626;25.386;2023-06-22T11:40:18;7.50;;;6.87;;
8060;SDS011;4073;42.626;25.386;2023-06-22T11:42:43;8.57;;;7.77;;
8060;SDS011;4073;42.626;25.386;2023-06-22T11:45:09;8.83;;;8.07;;
8060;SDS011;4073;42.626;25.386;2023-06-22T11:47:35;9.10;;;7.60;;
8060;SDS011;4073;42.626;25.386;2023-06-22T11:50:01;8.37;;;7.67;;
8060;SDS011;4073;42.626;25.386;2023-06-22T11:52:27;8.67;;;7.73;;
8060;SDS011;4073;42.626;25.386;2023-06-22T11:54:53;8.77;;;7.97;;
8060;SDS011;4073;42.626;25.386;2023-06-22T11:57:18;8.67;;;7.93;;
8060;SDS011;4073;42.626;25.386;2023-06-22T11:59:44;8.93;;;7.80;;
8060;SDS011;4073;42.626;25.386;2023-06-22T12:02:09;9.00;;;8.03;;
8060;SDS011;4073;42.626;25.386;2023-06-22T12:04:35;8.80;;;7.57;;
8060;SDS011;4073;42.626;25.386;2023-06-22T12:07:00;7.70;;;7.10;;
8060;SDS011;4073;42.626;25.386;2023-06-22T12:09:26;8.63;;;7.83;;
8060;SDS011;4073;42.626;25.386;2023-06-22T12:11:51;8.33;;;7.53;;
8060;SDS011;4073;42.626;25.386;2023-06-22T12:14:17;8.87;;;8.17;;
8060;SDS011;4073;42.626;25.386;2023-06-22T12:16:42;7.47;;;6.87;;
8060;SDS011;4073;42.626;25.386;2023-06-22T12:19:09;7.77;;;7.17;;
8060;SDS011;4073;42.626;25.386;2023-06-22T12:21:37;9.70;;;7.23;;
8060;SDS011;4073;42.626;25.386;2023-06-22T12:24:02;7.80;;;7.20;;
8060;SDS011;4073;42.626;25.386;2023-06-22T12:26:28;8.23;;;7.53;;
8060;SDS011;4073;42.626;25.386;2023-06-22T12:28:53;7.57;;;6.90;;
8060;SDS011;4073;42.626;25.386;2023-06-22T12:31:19;9.00;;;7.90;;
8060;SDS011;4073;42.626;25.386;2023-06-22T12:33:44;13.00;;;8.20;;
8060;SDS011;4073;42.626;25.386;2023-06-22T12:36:10;9.00;;;8.20;;
8060;SDS011;4073;42.626;25.386;2023-06-22T12:38:35;9.10;;;8.20;;
8060;SDS011;4073;42.626;25.386;2023-06-22T12:41:01;9.70;;;8.47;;
8060;SDS011;4073;42.626;25.386;2023-06-22T12:43:26;7.83;;;7.23;;
8060;SDS011;4073;42.626;25.386;2023-06-22T12:45:51;7.93;;;7.23;;
8060;SDS011;4073;42.626;25.386;2023-06-22T12:48:18;8.73;;;7.87;;
8060;SDS011;4073;42.626;25.386;2023-06-22T12:50:44;8.50;;;7.70;;
8060;SDS011;4073;42.626;25.386;2023-06-22T12:53:09;9.67;;;8.63;;
8060;SDS011;4073;42.626;25.386;2023-06-22T12:55:34;12.27;;;7.60;;
8060;SDS011;4073;42.626;25.386;2023-06-22T12:58:00;8.47;;;7.77;;
8060;SDS011;4073;42.626;25.386;2023-06-22T13:00:25;9.00;;;8.30;;
8060;SDS011;4073;42.626;25.386;2023-06-22T13:02:51;9.20;;;8.40;;
8060;SDS011;4073;42.626;25.386;2023-06-22T13:05:16;8.70;;;8.00;;
8060;SDS011;4073;42.626;25.386;2023-06-22T13:07:42;8.80;;;8.03;;
8060;SDS011;4073;42.626;25.386;2023-06-22T13:10:07;8.63;;;7.83;;
8060;SDS011;4073;42.626;25.386;2023-06-22T13:12:33;8.80;;;7.97;;
8060;SDS011;4073;42.626;25.386;2023-06-22T13:14:59;9.00;;;8.10;;
8060;SDS011;4073;42.626;25.386;2023-06-22T13:17:24;8.53;;;7.83;;
8060;SDS011;4073;42.626;25.386;2023-06-22T13:19:50;9.67;;;8.27;;
8060;SDS011;4073;42.626;25.386;2023-06-22T13:25:10;7.70;;;7.00;;
8060;SDS011;4073;42.626;25.386;2023-06-22T13:27:40;8.17;;;7.13;;
8060;SDS011;4073;42.626;25.386;2023-06-22T13:30:07;8.60;;;7.80;;
8060;SDS011;4073;42.626;25.386;2023-06-22T13:32:33;8.80;;;7.90;;
8060;SDS011;4073;42.626;25.386;2023-06-22T13:34:58;10.63;;;8.07;;
8060;SDS011;4073;42.626;25.386;2023-06-22T13:37:25;8.40;;;7.70;;
8060;SDS011;4073;42.626;25.386;2023-06-22T13:39:50;10.20;;;8.00;;
8060;SDS011;4073;42.626;25.386;2023-06-22T13:42:16;7.83;;;7.13;;
8060;SDS011;4073;42.626;25.386;2023-06-22T13:44:41;10.67;;;8.90;;
8060;SDS011;4073;42.626;25.386;2023-06-22T13:47:07;8.70;;;7.80;;
8060;SDS011;4073;42.626;25.386;2023-06-22T13:49:32;8.60;;;7.90;;
8060;SDS011;4073;42.626;25.386;2023-06-22T13:51:58;11.63;;;8.40;;
8060;SDS011;4073;42.626;25.386;2023-06-22T13:54:24;8.80;;;7.43;;
8060;SDS011;4073;42.626;25.386;2023-06-22T13:56:50;8.30;;;7.43;;
8060;SDS011;4073;42.626;25.386;2023-06-22T13:59:15;8.90;;;8.03;;
8060;SDS011;4073;42.626;25.386;2023-06-22T14:01:41;11.03;;;10.10;;
8060;SDS011;4073;42.626;25.386;2023-06-22T14:04:06;12.17;;;9.43;;
8060;SDS011;4073;42.626;25.386;2023-06-22T14:06:32;9.53;;;8.67;;
8060;SDS011;4073;42.626;25.386;2023-06-22T14:08:57;8.87;;;8.07;;
8060;SDS011;4073;42.626;25.386;2023-06-22T14:11:24;9.23;;;7.67;;
8060;SDS011;4073;42.626;25.386;2023-06-22T14:13:49;8.37;;;7.57;;
8060;SDS011;4073;42.626;25.386;2023-06-22T14:16:15;8.57;;;7.87;;
8060;SDS011;4073;42.626;25.386;2023-06-22T14:18:40;11.40;;;7.87;;
8060;SDS011;4073;42.626;25.386;2023-06-22T14:21:06;8.57;;;7.67;;
8060;SDS011;4073;42.626;25.386;2023-06-22T14:23:31;8.70;;;7.93;;
8060;SDS011;4073;42.626;25.386;2023-06-22T14:25:56;8.47;;;7.77;;
8060;SDS011;4073;42.626;25.386;2023-06-22T14:28:22;7.97;;;7.37;;
8060;SDS011;4073;42.626;25.386;2023-06-22T14:30:47;9.90;;;7.70;;
8060;SDS011;4073;42.626;25.386;2023-06-22T14:33:13;8.90;;;8.00;;
8060;SDS011;4073;42.626;25.386;2023-06-22T14:35:38;8.40;;;7.70;;
8060;SDS011;4073;42.626;25.386;2023-06-22T14:38:04;9.60;;;8.70;;
8060;SDS011;4073;42.626;25.386;2023-06-22T14:40:29;7.80;;;7.17;;
8060;SDS011;4073;42.626;25.386;2023-06-22T14:42:55;9.10;;;8.20;;
8060;SDS011;4073;42.626;25.386;2023-06-22T14:45:22;8.83;;;8.03;;
8060;SDS011;4073;42.626;25.386;2023-06-22T14:47:48;8.50;;;7.80;;
8060;SDS011;4073;42.626;25.386;2023-06-22T14:50:13;8.17;;;7.47;;
8060;SDS011;4073;42.626;25.386;2023-06-22T14:52:39;8.10;;;7.30;;
8060;SDS011;4073;42.626;25.386;2023-06-22T14:55:04;8.93;;;8.13;;
8060;SDS011;4073;42.626;25.386;2023-06-22T14:57:30;8.20;;;7.53;;